Time;durP1;ratioP1;P1;durP2;ratioP2;P2;SDS_P1;SDS_P2;PMS_P1;PMS_P2;Temp;Humidity;BMP_temperature;BMP_pressure;BME280_temperature;BME280_humidity;BME280_pressure;Samples;Min_cycle;Max_cycle;Signal;HPM_P1;HPM_P2
2022/03/15 00:02:01;;;;;;;;;;;;;;;1.36;63.88;102552.56;4991220;28;19926;-76
2022/03/15 00:04:27;;;;;;;;;;;;;;;1.37;64.76;102557.81;4990869;28;19926;-78
2022/03/15 00:06:53;;;;;;;;;;;;;;;1.30;64.95;102561.38;4991206;28;19968;-76
2022/03/15 00:09:18;;;;;;;;;;;;;;;1.25;65.03;102559.22;4991804;28;20008;-77
2022/03/15 00:11:47;;;;;;;;;;;;;;;1.30;65.23;102551.41;4994523;28;20016;-77
2022/03/15 00:14:14;;;;;;;;;;;;;;;1.33;65.18;102548.34;4993879;28;20080;-75
2022/03/15 00:16:42;;;;;;;;;;;;;;;1.40;65.05;102552.06;4982100;28;19926;-77
2022/03/15 00:19:09;;;;;;;;;;;;;;;1.35;65.58;102548.19;4978413;28;20419;-77
2022/03/15 00:21:34;;;;;;;;;;;;;;;1.26;65.86;102550.06;4994099;28;19926;-75
2022/03/15 00:24:00;;;;;;;;;;;;;;;1.24;65.96;102540.44;4994342;28;19948;-76
2022/03/15 00:26:28;;;;;;;;;;;;;;;1.23;65.43;102539.59;4990610;28;19930;-78
2022/03/15 00:28:53;;;;;;;;;;;;;;;1.24;65.97;102540.44;4993400;28;19925;-76
2022/03/15 00:31:19;;;;;;;;;;;;;;;1.25;65.54;102536.72;4993071;28;19996;-77
2022/03/15 00:33:45;;;;;;;;;;;;;;;1.22;65.98;102539.78;4993927;28;19926;-77
2022/03/15 00:36:10;;;;;;;;;;;;;;;1.16;65.96;102534.03;4991840;28;19929;-77
2022/03/15 00:38:36;;;;;;;;;;;;;;;1.14;66.01;102544.19;5009749;28;19925;-77
2022/03/15 00:41:01;;;;;;;;;;;;;;;1.21;66.33;102541.63;4976522;28;20316;-77
2022/03/15 00:43:27;;;;;;;;;;;;;;;1.25;66.87;102547.53;4993223;28;19976;-77
2022/03/15 00:45:55;;;;;;;;;;;;;;;1.31;66.53;102552.25;4994309;28;19980;-77
2022/03/15 00:48:21;;;;;;;;;;;;;;;1.34;66.51;102541.94;4993020;28;20020;-77
2022/03/15 00:50:46;;;;;;;;;;;;;;;1.32;66.05;102548.53;4994025;28;20028;-77
2022/03/15 00:53:12;;;;;;;;;;;;;;;1.33;66.53;102539.41;4994543;28;19925;-77
2022/03/15 00:55:40;;;;;;;;;;;;;;;1.31;66.08;102552.25;4996975;28;19926;-77
2022/03/15 00:58:07;;;;;;;;;;;;;;;1.30;66.28;102539.75;4989648;28;19933;-78
2022/03/15 01:00:35;;;;;;;;;;;;;;;1.27;66.68;102543.66;4993937;28;19961;-77
2022/03/15 01:03:05;;;;;;;;;;;;;;;1.23;66.34;102538.78;4992589;28;19928;-76
2022/03/15 01:05:30;;;;;;;;;;;;;;;1.20;66.37;102534.53;4974360;28;19933;-76
2022/03/15 01:07:56;;;;;;;;;;;;;;;1.15;67.04;102537.75;4994002;28;19925;-76
2022/03/15 01:10:21;;;;;;;;;;;;;;;1.16;66.77;102539.44;4993753;28;19933;-76
2022/03/15 01:12:47;;;;;;;;;;;;;;;1.13;67.25;102541.66;4993994;28;20428;-77
2022/03/15 01:15:12;;;;;;;;;;;;;;;1.17;67.44;102537.56;4993734;28;20404;-76
2022/03/15 01:17:38;;;;;;;;;;;;;;;1.17;67.27;102532.16;4993495;28;19933;-76
2022/03/15 01:20:05;;;;;;;;;;;;;;;1.22;67.61;102532.53;4990182;28;20016;-76
2022/03/15 01:22:31;;;;;;;;;;;;;;;1.26;67.68;102535.72;4994048;28;20021;-76
2022/03/15 01:24:56;;;;;;;;;;;;;;;1.28;67.13;102525.56;4993598;28;19929;-75
2022/03/15 01:27:22;;;;;;;;;;;;;;;1.30;67.67;102532.47;4992112;28;20359;-76
2022/03/15 01:29:47;;;;;;;;;;;;;;;1.31;67.28;102531.47;4992204;28;19933;-76
2022/03/15 01:32:12;;;;;;;;;;;;;;;1.23;67.43;102526.09;4999440;28;19926;-76
2022/03/15 01:34:38;;;;;;;;;;;;;;;1.11;67.58;102528.31;5007895;28;20093;-76
2022/03/15 01:37:04;;;;;;;;;;;;;;;1.05;67.89;102523.59;4993160;28;19948;-76
2022/03/15 01:39:29;;;;;;;;;;;;;;;0.96;68.00;102526.47;4992853;28;20422;-77
2022/03/15 01:41:55;;;;;;;;;;;;;;;0.88;68.60;102525.50;4991733;28;20280;-76
2022/03/15 01:44:21;;;;;;;;;;;;;;;0.84;68.29;102528.69;4993148;28;19926;-76
2022/03/15 01:46:47;;;;;;;;;;;;;;;0.81;68.79;102529.03;4993199;28;19933;-76
2022/03/15 01:49:18;;;;;;;;;;;;;;;0.75;68.54;102524.31;4993214;28;19972;-76
2022/03/15 01:51:46;;;;;;;;;;;;;;;0.76;69.77;102534.94;4992228;28;20304;-76
2022/03/15 01:54:12;;;;;;;;;;;;;;;0.85;69.62;102528.50;4990290;28;20009;-75
2022/03/15 01:56:41;;;;;;;;;;;;;;;0.89;69.54;102526.34;4991527;28;19926;-75
2022/03/15 01:59:11;;;;;;;;;;;;;;;0.95;69.83;102527.50;4990293;28;20375;-75
2022/03/15 02:01:37;;;;;;;;;;;;;;;1.01;69.83;102524.09;4988947;28;19926;-75
2022/03/15 02:04:03;;;;;;;;;;;;;;;1.02;70.00;102517.66;4989034;28;19932;-74
2022/03/15 02:06:28;;;;;;;;;;;;;;;1.04;69.34;102521.03;4991453;28;19926;-76
2022/03/15 02:08:54;;;;;;;;;;;;;;;1.04;69.21;102515.63;4991598;28;20463;-77
2022/03/15 02:11:19;;;;;;;;;;;;;;;1.05;69.96;102518.19;4992344;28;19926;-77
2022/03/15 02:13:47;;;;;;;;;;;;;;;1.12;69.54;102516.47;4992297;28;19973;-76
2022/03/15 02:16:13;;;;;;;;;;;;;;;1.15;69.41;102528.78;4989367;28;19953;-76
2022/03/15 02:18:38;;;;;;;;;;;;;;;1.23;69.14;102531.50;4989294;28;20047;-77
2022/03/15 02:21:05;;;;;;;;;;;;;;;1.17;69.49;102526.75;4991348;28;20379;-74
2022/03/15 02:23:30;;;;;;;;;;;;;;;1.04;69.91;102523.75;4992330;28;19926;-76
2022/03/15 02:25:55;;;;;;;;;;;;;;;0.90;70.31;102526.16;4992093;28;19925;-75
2022/03/15 02:28:21;;;;;;;;;;;;;;;0.78;70.51;102522.09;4990934;28;19934;-75
2022/03/15 02:30:46;;;;;;;;;;;;;;;0.74;70.27;102528.03;4992136;28;19933;-74
2022/03/15 02:33:12;;;;;;;;;;;;;;;0.63;70.64;102529.22;4991364;28;19984;-75
2022/03/15 02:35:38;;;;;;;;;;;;;;;0.55;71.21;102518.41;4991527;28;19977;-75
2022/03/15 02:38:04;;;;;;;;;;;;;;;0.50;71.41;102521.59;4991816;28;19926;-75
2022/03/15 02:40:30;;;;;;;;;;;;;;;0.47;71.85;102532.75;4991751;28;20307;-75
2022/03/15 02:42:55;;;;;;;;;;;;;;;0.40;72.28;102529.03;4991964;28;19932;-76
2022/03/15 02:45:22;;;;;;;;;;;;;;;0.43;72.38;102530.56;4991570;28;19930;-77
2022/03/15 02:47:48;;;;;;;;;;;;;;;0.43;72.89;102522.47;4992136;28;19972;-76
2022/03/15 02:50:14;;;;;;;;;;;;;;;0.39;72.95;102535.47;4991740;28;19973;-75
2022/03/15 02:52:39;;;;;;;;;;;;;;;0.35;73.41;102530.53;4991992;28;19969;-76
2022/03/15 02:55:05;;;;;;;;;;;;;;;0.37;73.21;102536.66;4991115;28;19992;-75
2022/03/15 02:57:31;;;;;;;;;;;;;;;0.39;73.75;102534.63;4992259;28;19925;-75
2022/03/15 02:59:58;;;;;;;;;;;;;;;0.36;73.31;102527.69;4991862;28;19980;-76
2022/03/15 03:02:24;;;;;;;;;;;;;;;0.32;74.00;102536.28;4992188;28;19930;-76
2022/03/15 03:04:51;;;;;;;;;;;;;;;0.29;73.46;102537.47;4991455;28;19976;-76
2022/03/15 03:07:18;;;;;;;;;;;;;;;0.27;73.55;102542.19;4989974;28;19926;-75
2022/03/15 03:09:44;;;;;;;;;;;;;;;0.24;74.26;102537.97;4990383;28;20408;-75
2022/03/15 03:12:10;;;;;;;;;;;;;;;0.22;73.87;102542.69;4991710;28;19930;-76
2022/03/15 03:14:36;;;;;;;;;;;;;;;0.22;73.96;102533.75;4990404;28;19933;-77
2022/03/15 03:17:02;;;;;;;;;;;;;;;0.22;74.11;102541.84;4961701;28;20419;-75
2022/03/15 03:19:28;;;;;;;;;;;;;;;0.20;74.27;102536.63;4987513;28;19926;-77
2022/03/15 03:21:53;;;;;;;;;;;;;;;0.18;74.23;102537.81;4991661;28;19933;-77
2022/03/15 03:24:21;;;;;;;;;;;;;;;0.15;74.76;102538.09;4991179;28;19930;-76
2022/03/15 03:26:46;;;;;;;;;;;;;;;0.13;74.74;102535.56;4991475;28;19929;-76
2022/03/15 03:29:13;;;;;;;;;;;;;;;0.10;74.50;102535.06;4991632;28;19980;-75
2022/03/15 03:31:39;;;;;;;;;;;;;;;-0.04;74.79;102534.69;4988661;28;19926;-75
2022/03/15 03:34:05;;;;;;;;;;;;;;;-0.09;74.99;102536.22;4971569;28;20048;-76
2022/03/15 03:36:32;;;;;;;;;;;;;;;-0.08;74.84;102535.19;4973912;28;20463;-77
2022/03/15 03:38:58;;;;;;;;;;;;;;;-0.10;74.64;102538.06;4974071;28;19930;-76
2022/03/15 03:41:24;;;;;;;;;;;;;;;-0.16;74.40;102543.28;4990001;28;20352;-74
2022/03/15 03:43:50;;;;;;;;;;;;;;;-0.23;75.12;102550.31;4991397;28;19937;-76
2022/03/15 03:46:16;;;;;;;;;;;;;;;-0.25;74.59;102550.50;4993852;28;19926;-77
2022/03/15 03:48:41;;;;;;;;;;;;;;;-0.26;75.08;102550.66;4995102;28;19926;-76
2022/03/15 03:51:08;;;;;;;;;;;;;;;-0.23;75.23;102545.78;4993755;28;19925;-76
2022/03/15 03:53:34;;;;;;;;;;;;;;;-0.16;74.93;102546.81;4995298;28;19984;-77
2022/03/15 03:55:59;;;;;;;;;;;;;;;-0.15;74.45;102547.66;4994182;28;19977;-76
2022/03/15 03:58:25;;;;;;;;;;;;;;;-0.26;74.17;102550.66;4998394;28;19968;-76
2022/03/15 04:00:50;;;;;;;;;;;;;;;-0.35;74.19;102552.47;4973626;28;19922;-77
2022/03/15 04:03:17;;;;;;;;;;;;;;;-0.40;73.97;102552.13;4994470;28;20020;-76
2022/03/15 04:05:46;;;;;;;;;;;;;;;-0.45;73.92;102547.22;5001149;28;20400;-76
2022/03/15 04:08:13;;;;;;;;;;;;;;;-0.45;73.25;102557.16;5010053;28;19926;-77
2022/03/15 04:10:39;;;;;;;;;;;;;;;-0.48;73.18;102552.94;4994893;28;20316;-78
2022/03/15 04:13:07;;;;;;;;;;;;;;;-0.46;72.92;102560.88;4990656;28;19996;-76
2022/03/15 04:15:33;;;;;;;;;;;;;;;-0.48;73.45;102558.31;4993304;28;19933;-76
2022/03/15 04:17:58;;;;;;;;;;;;;;;-0.44;73.18;102558.84;4992294;28;19934;-77
2022/03/15 04:22:59;;;;;;;25.98;13.98;;;;;;;-0.31;73.59;102560.09;5101475;27;20717;-77
2022/03/15 04:25:25;;;;;;;26.05;13.02;;;;;;;-0.27;72.76;102557.91;5107990;28;20031;-79
2022/03/15 04:27:56;;;;;;;28.85;13.90;;;;;;;-0.22;72.82;102560.09;5096187;28;20078;-78
2022/03/15 04:30:24;;;;;;;27.95;13.70;;;;;;;-0.24;73.13;102557.56;5086426;28;20511;-77
2022/03/15 04:32:50;;;;;;;24.98;13.65;;;;;;;-0.16;72.46;102563.00;5067705;28;20521;-79
2022/03/15 04:35:15;;;;;;;26.05;13.13;;;;;;;0.09;72.50;102560.38;5081641;28;20045;-79
2022/03/15 04:37:41;;;;;;;28.98;13.48;;;;;;;0.38;71.57;102559.94;5075560;28;20658;-78
2022/03/15 04:40:07;;;;;;;26.25;13.27;;;;;;;0.62;70.79;102567.19;5068160;28;20418;-78
2022/03/15 04:42:34;;;;;;;27.50;13.20;;;;;;;0.77;70.44;102557.41;5081686;28;20040;-79
2022/03/15 04:44:59;;;;;;;25.75;13.60;;;;;;;0.77;69.77;102563.66;5068385;28;20039;-77
2022/03/15 04:47:25;;;;;;;23.67;12.05;;;;;;;0.69;68.67;102560.09;5074923;28;20036;-78
2022/03/15 04:49:51;;;;;;;25.13;11.52;;;;;;;0.59;68.13;102562.97;5086214;28;20048;-78
2022/03/15 04:52:18;;;;;;;29.10;11.93;;;;;;;0.61;68.12;102560.94;5070628;28;20124;-79
2022/03/15 04:54:45;;;;;;;20.83;11.15;;;;;;;0.58;67.34;102567.53;5085797;28;20040;-79
2022/03/15 04:57:11;;;;;;;20.30;10.23;;;;;;;0.43;66.77;102560.28;5081172;28;20038;-78
2022/03/15 04:59:36;;;;;;;21.08;10.98;;;;;;;0.44;67.34;102561.94;5075137;28;20096;-79
2022/03/15 05:02:02;;;;;;;19.35;11.10;;;;;;;0.42;67.43;102566.69;5080257;28;20040;-79
2022/03/15 05:04:28;;;;;;;19.10;10.73;;;;;;;0.45;67.15;102563.63;5067452;28;20094;-79
2022/03/15 05:06:53;;;;;;;19.67;10.70;;;;;;;0.50;66.92;102570.22;5067500;28;20033;-79
2022/03/15 05:09:19;;;;;;;18.75;9.93;;;;;;;0.43;66.58;102568.38;5078461;28;20059;-78
2022/03/15 05:11:46;;;;;;;19.13;8.93;;;;;;;0.32;66.56;102561.44;5085824;28;20055;-78
2022/03/15 05:14:14;;;;;;;15.15;8.55;;;;;;;0.25;66.41;102561.25;5069269;28;20037;-78
2022/03/15 05:16:40;;;;;;;18.60;9.70;;;;;;;0.21;65.93;102562.59;5076243;28;20047;-78
2022/03/15 05:19:06;;;;;;;15.20;9.20;;;;;;;0.04;65.77;102573.53;5069528;28;20106;-79
2022/03/15 05:21:31;;;;;;;17.08;9.57;;;;;;;-0.07;66.36;102577.38;5075709;28;20060;-78
2022/03/15 05:23:57;;;;;;;14.30;8.18;;;;;;;-0.09;66.41;102574.00;5104618;28;20036;-78
2022/03/15 05:26:23;;;;;;;14.07;8.60;;;;;;;-0.08;67.12;102576.53;5103314;28;20028;-78
2022/03/15 05:28:50;;;;;;;11.55;8.05;;;;;;;0.10;66.94;102568.31;5120219;28;20126;-79
2022/03/15 05:31:21;;;;;;;13.52;7.63;;;;;;;0.36;66.13;102570.06;5099050;28;20509;-78
2022/03/15 05:33:51;;;;;;;13.70;7.43;;;;;;;0.79;65.77;102569.72;5096353;28;20063;-78
2022/03/15 05:36:16;;;;;;;14.63;7.82;;;;;;;1.22;64.31;102569.53;5094219;28;20126;-79
2022/03/15 05:38:42;;;;;;;14.82;7.78;;;;;;;1.49;63.84;102564.53;5093889;28;20071;-79
2022/03/15 05:41:08;;;;;;;13.32;7.28;;;;;;;1.70;62.88;102568.50;5093430;28;20044;-79
2022/03/15 05:43:37;;;;;;;13.05;6.72;;;;;;;1.96;62.05;102552.84;5088400;28;20481;-78
2022/03/15 05:46:04;;;;;;;10.55;6.43;;;;;;;2.11;61.54;102570.03;5085660;28;20032;-77
2022/03/15 05:48:30;;;;;;;10.68;6.20;;;;;;;2.58;61.03;102568.16;5092275;28;20628;-78
2022/03/15 05:50:56;;;;;;;10.93;6.40;;;;;;;3.19;59.40;102575.25;5092383;28;20052;-79
2022/03/15 05:53:22;;;;;;;10.13;5.50;;;;;;;3.74;58.40;102560.38;5086399;28;20044;-77
2022/03/15 05:55:48;;;;;;;11.80;6.43;;;;;;;4.61;56.39;102562.22;5078464;28;20036;-77
2022/03/15 05:58:16;;;;;;;9.93;5.97;;;;;;;5.24;54.56;102560.44;5073219;28;20041;-84
2022/03/15 06:00:42;;;;;;;10.43;6.50;;;;;;;5.72;52.85;102562.19;5073346;28;20052;-78
2022/03/15 06:03:12;;;;;;;9.05;5.63;;;;;;;6.18;51.77;102563.44;5079708;28;20051;-79
2022/03/15 06:05:38;;;;;;;11.45;5.90;;;;;;;6.66;50.39;102569.66;5093901;28;20036;-79
2022/03/15 06:08:04;;;;;;;13.90;6.40;;;;;;;7.13;48.72;102554.97;5092791;28;20071;-79
2022/03/15 06:10:30;;;;;;;9.80;5.75;;;;;;;7.57;47.86;102556.97;5093706;28;20533;-79
2022/03/15 06:12:57;;;;;;;13.13;6.78;;;;;;;7.87;46.77;102561.94;5090810;28;20044;-78
2022/03/15 06:15:22;;;;;;;9.65;6.53;;;;;;;7.94;46.32;102551.81;5085888;28;20047;-77
2022/03/15 06:17:51;;;;;;;12.15;6.28;;;;;;;8.33;45.86;102547.19;5089313;28;20040;-78
2022/03/15 06:20:18;;;;;;;7.93;5.72;;;;;;;8.74;44.59;102553.06;5091962;28;20047;-78
2022/03/15 06:22:46;;;;;;;12.10;6.50;;;;;;;8.90;43.22;102543.47;5091405;28;20052;-80
2022/03/15 06:25:13;;;;;;;10.75;6.43;;;;;;;9.16;43.24;102545.09;5092719;28;20048;-78
2022/03/15 06:27:38;;;;;;;8.57;6.55;;;;;;;9.38;42.60;102539.22;5092809;28;20154;-78
2022/03/15 06:30:05;;;;;;;9.52;6.55;;;;;;;9.62;41.91;102538.31;5092306;28;20118;-79
2022/03/15 06:32:31;;;;;;;11.55;6.43;;;;;;;9.90;40.54;102552.31;5074508;28;20410;-77
2022/03/15 06:34:58;;;;;;;10.90;6.30;;;;;;;10.11;40.48;102548.25;5092753;28;20040;-78
2022/03/15 06:37:28;;;;;;;12.75;7.18;;;;;;;10.27;40.21;102547.66;5092595;28;20039;-77
2022/03/15 06:39:55;;;;;;;10.23;6.45;;;;;;;9.97;40.44;102547.59;5092799;28;20036;-78
2022/03/15 06:42:21;;;;;;;12.02;7.07;;;;;;;10.08;40.00;102545.97;5092750;28;20044;-79
2022/03/15 06:44:47;;;;;;;10.07;6.30;;;;;;;10.24;39.52;102544.53;5077566;28;20040;-79
2022/03/15 06:47:13;;;;;;;9.68;7.00;;;;;;;10.37;40.17;102557.22;5072319;28;20396;-78
2022/03/15 06:49:39;;;;;;;11.70;6.57;;;;;;;10.58;39.49;102546.53;5071293;28;20497;-79
2022/03/15 06:52:05;;;;;;;13.30;6.90;;;;;;;11.00;38.76;102554.75;5054169;28;20411;-78
2022/03/15 06:54:31;;;;;;;14.43;7.50;;;;;;;11.18;38.01;102538.16;5072333;28;20047;-78
2022/03/15 06:56:57;;;;;;;14.90;6.88;;;;;;;11.43;37.04;102539.81;5054081;28;20033;-79
2022/03/15 06:59:23;;;;;;;12.43;7.78;;;;;;;11.60;36.70;102540.75;5072702;28;20082;-78
2022/03/15 07:01:49;;;;;;;11.82;7.10;;;;;;;11.52;36.41;102546.63;5071803;28;20044;-77
2022/03/15 07:04:17;;;;;;;10.05;7.35;;;;;;;11.67;36.96;102557.97;5071892;28;20050;-79
2022/03/15 07:06:44;;;;;;;17.10;7.53;;;;;;;11.97;36.03;102551.44;5071600;28;20539;-78
2022/03/15 07:09:10;;;;;;;11.65;8.18;;;;;;;11.98;36.53;102544.91;5071818;28;20048;-78
2022/03/15 07:11:35;;;;;;;17.10;8.80;;;;;;;11.75;36.60;102543.81;5070525;28;20068;-79
2022/03/15 07:14:03;;;;;;;12.88;7.53;;;;;;;11.88;36.01;102548.25;5088443;28;20048;-78
2022/03/15 07:16:28;;;;;;;14.50;9.23;;;;;;;12.16;35.11;102550.22;5091785;28;20032;-78
2022/03/15 07:18:55;;;;;;;15.90;8.35;;;;;;;12.36;34.79;102550.59;5091731;28;20039;-78
2022/03/15 07:21:21;;;;;;;15.02;8.50;;;;;;;12.46;34.45;102546.34;5091604;28;20048;-78
2022/03/15 07:23:47;;;;;;;13.50;8.15;;;;;;;12.52;34.92;102551.72;5091692;28;20127;-79
2022/03/15 07:26:12;;;;;;;14.35;8.57;;;;;;;12.86;34.07;102549.00;5073731;28;20097;-78
2022/03/15 07:28:38;;;;;;;15.35;9.63;;;;;;;13.21;33.96;102565.31;5091123;28;20118;-79
2022/03/15 07:31:05;;;;;;;15.60;9.48;;;;;;;13.34;33.81;102564.13;5091711;28;20040;-78
2022/03/15 07:33:31;;;;;;;19.23;10.38;;;;;;;13.34;33.45;102553.91;5091708;28;20061;-78
2022/03/15 07:35:59;;;;;;;16.88;10.23;;;;;;;13.60;32.87;102551.53;5090600;28;20047;-78
2022/03/15 07:38:25;;;;;;;16.77;9.30;;;;;;;13.87;32.63;102553.28;5090314;28;20076;-79
2022/03/15 07:40:52;;;;;;;15.75;10.65;;;;;;;13.85;32.84;102557.38;5090111;28;20063;-78
2022/03/15 07:43:19;;;;;;;16.05;10.10;;;;;;;13.89;32.74;102558.56;5075731;28;20775;-77
2022/03/15 07:45:45;;;;;;;15.70;9.40;;;;;;;14.07;32.23;102561.00;5069923;28;20044;-78
2022/03/15 07:48:11;;;;;;;16.58;10.10;;;;;;;14.17;32.22;102566.63;5070953;28;20529;-78
2022/03/15 07:50:36;;;;;;;21.52;9.27;;;;;;;14.41;31.78;102563.59;5069916;28;20041;-78
2022/03/15 07:53:02;;;;;;;17.58;9.82;;;;;;;14.64;31.17;102557.78;5070836;28;20044;-78
2022/03/15 07:55:28;;;;;;;17.70;10.00;;;;;;;14.91;30.80;102554.97;5071100;28;20169;-77
2022/03/15 07:57:53;;;;;;;22.05;10.32;;;;;;;15.07;30.06;102554.00;5071574;28;20064;-77
2022/03/15 08:00:19;;;;;;;17.13;9.35;;;;;;;15.17;29.94;102558.78;5069695;28;20127;-77
2022/03/15 08:02:45;;;;;;;18.60;9.95;;;;;;;15.36;29.87;102561.94;5069809;28;20123;-79
2022/03/15 08:05:10;;;;;;;15.82;8.90;;;;;;;15.54;29.66;102552.38;5069718;28;20068;-79
2022/03/15 08:07:36;;;;;;;14.57;8.65;;;;;;;15.73;29.42;102555.56;5071123;28;20131;-78
2022/03/15 08:10:04;;;;;;;14.05;8.40;;;;;;;15.80;29.04;102551.44;5069812;28;20044;-78
2022/03/15 08:12:30;;;;;;;;;;;;;;;16.06;28.78;102546.00;5072082;28;20132;-79
2022/03/15 08:14:55;;;;;;;16.08;9.00;;;;;;;16.22;28.93;102556.03;5073458;28;20022;-78
2022/03/15 08:17:21;;;;;;;17.10;8.52;;;;;;;16.43;28.64;102549.44;5070439;28;20475;-77
2022/03/15 08:19:46;;;;;;;15.40;8.13;;;;;;;16.59;27.70;102544.75;5073962;28;20037;-78
2022/03/15 08:22:12;;;;;;;18.00;8.18;;;;;;;16.96;27.17;102543.69;5068806;28;20155;-77
2022/03/15 08:24:38;;;;;;;19.55;8.25;;;;;;;17.20;27.04;102541.19;5069730;28;20047;-77
2022/03/15 08:27:03;;;;;;;16.52;8.60;;;;;;;17.11;27.01;102549.22;5083653;28;20059;-76
2022/03/15 08:29:30;;;;;;;16.02;8.07;;;;;;;17.35;26.80;102543.91;5065998;28;20043;-78
2022/03/15 08:31:57;;;;;;;14.02;7.60;;;;;;;17.64;26.19;102544.97;5078744;28;20048;-78
2022/03/15 08:34:23;;;;;;;15.57;9.50;;;;;;;17.97;25.91;102550.97;5070066;28;20426;-77
2022/03/15 08:36:49;;;;;;;15.13;8.60;;;;;;;17.87;25.60;102554.63;5072664;28;20442;-78
2022/03/15 08:39:15;;;;;;;15.30;8.68;;;;;;;17.57;25.65;102551.94;5079434;28;20037;-79
2022/03/15 08:41:42;;;;;;;13.13;8.07;;;;;;;17.24;25.97;102547.84;5091027;28;20039;-78
2022/03/15 08:44:08;;;;;;;16.67;9.07;;;;;;;16.85;26.38;102553.97;5100925;28;20047;-78
2022/03/15 08:46:34;;;;;;;24.05;9.35;;;;;;;16.33;27.39;102560.50;5073011;28;20036;-78
2022/03/15 08:49:01;;;;;;;13.52;8.20;;;;;;;16.22;27.32;102561.56;5105389;28;20046;-79
2022/03/15 08:51:26;;;;;;;19.05;8.73;;;;;;;16.15;27.43;102564.59;5100837;28;20048;-77
2022/03/15 08:53:52;;;;;;;17.13;8.73;;;;;;;15.99;27.65;102560.13;5101521;28;20040;-78
2022/03/15 08:56:17;;;;;;;22.25;8.98;;;;;;;16.14;27.78;102556.53;5090308;28;20119;-77
2022/03/15 08:58:43;;;;;;;20.02;8.82;;;;;;;16.23;27.91;102561.28;5100276;28;20042;-78
2022/03/15 09:01:09;;;;;;;21.02;8.93;;;;;;;16.11;27.86;102569.00;5110812;28;20050;-78
2022/03/15 09:03:34;;;;;;;16.35;9.48;;;;;;;16.07;27.86;102567.88;5110895;28;20040;-78
2022/03/15 09:06:00;;;;;;;18.38;10.23;;;;;;;15.91;28.42;102563.38;5111145;28;20028;-78
2022/03/15 09:08:27;;;;;;;19.55;9.70;;;;;;;15.73;28.51;102566.63;5112692;28;20070;-78
2022/03/15 09:10:53;;;;;;;21.50;9.23;;;;;;;14.58;29.58;102575.41;5113657;28;20579;-78
2022/03/15 09:13:19;;;;;;;20.70;9.70;;;;;;;13.03;31.45;102577.41;5113482;28;20039;-78
2022/03/15 09:15:44;;;;;;;22.20;10.30;;;;;;;11.98;32.43;102583.41;5114720;28;20039;-77
2022/03/15 09:18:12;;;;;;;21.63;9.32;;;;;;;11.19;33.86;102585.69;5114529;28;20032;-77
2022/03/15 09:20:38;;;;;;;23.77;9.57;;;;;;;10.58;35.07;102593.19;5106835;28;20036;-78
2022/03/15 09:23:05;;;;;;;17.92;8.65;;;;;;;9.96;35.91;102584.31;5083449;28;20418;-78
2022/03/15 09:25:32;;;;;;;20.55;8.82;;;;;;;9.32;37.11;102577.41;5084956;28;20395;-78
2022/03/15 09:27:58;;;;;;;20.27;8.48;;;;;;;8.84;38.62;102579.06;5094153;28;20032;-78
2022/03/15 09:30:23;;;;;;;16.75;8.15;;;;;;;8.48;39.67;102583.31;5082998;28;20032;-78
2022/03/15 09:32:49;;;;;;;15.10;7.50;;;;;;;8.27;40.02;102597.31;5086515;28;20032;-78
2022/03/15 09:35:15;;;;;;;15.80;7.57;;;;;;;7.85;40.93;102594.13;5084294;28;20041;-77
2022/03/15 09:37:45;;;;;;;11.45;7.05;;;;;;;7.62;40.84;102596.47;5084740;28;20098;-78
2022/03/15 09:40:11;;;;;;;15.80;8.70;;;;;;;7.26;42.10;102592.31;5093688;28;20047;-78
2022/03/15 09:42:37;;;;;;;17.40;7.95;;;;;;;7.14;42.27;102594.03;5073979;28;20040;-77
2022/03/15 09:45:04;;;;;;;18.23;8.63;;;;;;;7.08;43.10;102590.22;5073171;28;20045;-78
2022/03/15 09:47:34;;;;;;;15.90;7.72;;;;;;;6.94;43.56;102592.16;5073415;28;20041;-79
2022/03/15 09:50:03;;;;;;;15.98;7.85;;;;;;;6.92;43.51;102596.94;5075921;28;20058;-78
2022/03/15 09:52:29;;;;;;;;;;;;;;;6.87;43.14;102594.00;5078524;28;20521;-77
2022/03/15 09:54:56;;;;;;;17.63;8.65;;;;;;;6.76;43.77;102596.50;5071671;28;19920;-78
2022/03/15 09:57:21;;;;;;;20.25;8.68;;;;;;;6.73;43.94;102592.31;5072101;28;20048;-77
2022/03/15 09:59:50;;;;;;;22.92;8.73;;;;;;;6.75;43.97;102589.38;5089242;28;20135;-78
2022/03/15 10:02:16;;;;;;;25.00;8.57;;;;;;;6.75;44.35;102590.22;5087107;28;20037;-78
2022/03/15 10:04:42;;;;;;;20.40;8.63;;;;;;;6.83;44.71;102594.66;5072135;28;20068;-77
2022/03/15 10:07:08;;;;;;;14.63;8.88;;;;;;;6.87;44.74;102591.28;5071854;28;20097;-78
2022/03/15 10:09:34;;;;;;;15.38;9.02;;;;;;;6.84;44.49;102597.16;5091435;28;20044;-77
2022/03/15 10:12:01;;;;;;;19.23;8.27;;;;;;;6.75;44.29;102589.38;5108410;28;20039;-78
2022/03/15 10:14:27;;;;;;;24.85;9.10;;;;;;;6.69;44.71;102585.59;5104092;28;20032;-78
2022/03/15 10:16:59;;;;;;;20.02;8.70;;;;;;;6.69;44.56;102587.50;5081066;28;20407;-78
2022/03/15 10:19:25;;;;;;;17.92;7.60;;;;;;;6.71;44.99;102596.31;5072479;28;20034;-78
2022/03/15 10:21:53;;;;;;;15.50;8.18;;;;;;;6.76;44.83;102591.88;5091295;28;20575;-78
2022/03/15 10:24:22;;;;;;;19.00;10.20;;;;;;;6.72;44.34;102593.38;5093364;28;20494;-79
2022/03/15 10:26:50;;;;;;;20.50;7.45;;;;;;;6.57;44.38;102587.25;5086309;28;20325;-78
2022/03/15 10:29:17;;;;;;;19.17;9.73;;;;;;;6.54;44.81;102583.06;5075920;28;20047;-77
2022/03/15 10:31:44;;;;;;;19.25;8.05;;;;;;;6.55;44.59;102583.88;5074795;28;20154;-77
2022/03/15 10:34:11;;;;;;;14.32;8.10;;;;;;;6.49;44.44;102587.47;5087763;28;20040;-78
2022/03/15 10:36:40;;;;;;;19.92;8.65;;;;;;;6.42;44.39;102575.66;5082516;28;20058;-77
2022/03/15 10:39:09;;;;;;;16.55;7.95;;;;;;;6.36;44.69;102580.06;5072487;28;20048;-77
2022/03/15 10:41:49;;;;;;;14.27;8.50;;;;;;;6.42;44.69;102597.50;5072796;28;20048;-78
2022/03/15 10:44:28;;;;;;;20.63;8.35;;;;;;;6.37;44.71;102580.91;5073062;28;20422;-77
2022/03/15 10:47:21;;;;;;;20.75;9.27;;;;;;;6.39;44.50;102584.28;5078271;28;20043;-77
2022/03/15 10:49:51;;;;;;;17.58;8.68;;;;;;;6.35;44.94;102584.69;5075569;28;20040;-83
2022/03/15 10:52:37;;;;;;;21.75;9.48;;;;;;;6.26;45.53;102588.66;5100136;28;20069;-83
2022/03/15 10:55:17;;;;;;;20.35;8.45;;;;;;;6.32;45.64;102579.66;5108341;28;20158;-83
2022/03/15 10:57:54;;;;;;;19.50;8.77;;;;;;;6.42;45.35;102584.72;5084585;28;20109;-82
2022/03/15 11:00:28;;;;;;;18.17;8.38;;;;;;;6.48;45.29;102577.59;5092355;28;20122;-83
2022/03/15 11:02:54;;;;;;;19.67;9.07;;;;;;;6.52;44.95;102576.13;5092468;28;20505;-84
2022/03/15 11:05:30;;;;;;;17.77;9.10;;;;;;;6.46;45.57;102574.25;5092145;28;20036;-84
2022/03/15 11:07:56;;;;;;;18.77;8.25;;;;;;;6.48;44.70;102567.53;5095059;28;20031;-83
2022/03/15 11:10:25;;;;;;;19.13;7.97;;;;;;;6.52;45.19;102567.94;5112307;28;20085;-84
2022/03/15 11:13:02;;;;;;;17.15;7.85;;;;;;;6.57;45.16;102571.72;5090787;28;20058;-85
2022/03/15 11:15:30;;;;;;;16.98;8.25;;;;;;;6.52;45.14;102570.66;5075349;28;20043;-78
2022/03/15 11:18:01;;;;;;;18.65;9.07;;;;;;;6.48;44.65;102559.34;5080482;28;20032;-79
2022/03/15 11:20:29;;;;;;;20.20;8.85;;;;;;;6.50;45.13;102562.69;5081931;28;20105;-81
2022/03/15 11:22:59;;;;;;;16.33;8.85;;;;;;;6.51;44.75;102563.53;5074794;28;20057;-79
2022/03/15 11:25:33;;;;;;;23.58;10.07;;;;;;;6.57;45.26;102562.69;5071280;28;20491;-82
2022/03/15 11:28:01;;;;;;;23.33;9.70;;;;;;;6.52;45.08;102557.03;5054753;28;20261;-80
2022/03/15 11:30:27;;;;;;;18.45;9.00;;;;;;;6.48;44.91;102563.97;5081099;28;20063;-79
2022/03/15 11:32:54;;;;;;;23.38;9.20;;;;;;;6.49;44.96;102557.47;5087147;28;20045;-80
2022/03/15 11:35:22;;;;;;;17.30;8.32;;;;;;;6.47;44.88;102556.81;5070601;28;20063;-82
2022/03/15 11:37:49;;;;;;;18.58;9.15;;;;;;;6.37;44.63;102545.47;5054803;28;20040;-81
2022/03/15 11:40:18;;;;;;;22.42;9.48;;;;;;;6.31;45.05;102547.13;5072122;28;20055;-79
2022/03/15 11:42:49;;;;;;;19.15;8.57;;;;;;;6.31;45.16;102555.31;5090339;28;20083;-79
2022/03/15 11:45:18;;;;;;;21.58;9.23;;;;;;;6.34;45.04;102560.34;5077362;28;20032;-79
2022/03/15 11:48:00;;;;;;;17.10;9.40;;;;;;;6.38;44.59;102555.31;5081065;28;20659;-80
2022/03/15 11:50:42;;;;;;;16.17;8.52;;;;;;;6.43;44.48;102552.84;5084704;28;20064;-80